Pitt Greenville Airport
KPGV : rendu visible

Aérodrome :











RETROUVEZ-NOUS SUR...

 
LOGIN :

S'inscrire | Disclaimer

   EN    FR    IT 

 









Légende :    VFR   VFR Marginal   IFR   IFR Intensif   IFR Très Intensif
Visi : 
Plafond : 
>= 8 km
>= 3000ft
5 à 8 km
1000 à 3000 ft
1500m à 5 km
500 à 1000 ft
800 à 1500m
200 à 500 ft
< 800m
< 200 ft
Symboles :   Orages  Brouillard  Fortes neiges  Fortes précipitations  Vent > 20 kt






- Altitude de l'aérodrome : 26 ft


KPGV - Pitt Greenville

DERNIER METAR :
  • 120515Z AUTO 22007KT 10SM CLR 14/07 A3000 RMK AO2

METARs EXPIRÉS :
  • 120455Z AUTO 21006KT 10SM CLR 14/07 A3001 RMK AO2
  • 120435Z AUTO 22008KT 10SM CLR 14/08 A3001 RMK AO2
  • 120415Z AUTO 22008KT 10SM CLR 14/08 A3002 RMK AO2
  • 120355Z AUTO 21008KT 10SM CLR 13/08 A3003 RMK AO2
  • 120335Z AUTO 22005KT 10SM CLR 13/08 A3003 RMK AO2
  • 120315Z AUTO 22005KT 10SM CLR 14/08 A3003 RMK AO2
  • 120255Z AUTO 21007KT 10SM CLR 14/07 A3003 RMK AO2

TAF KPGV
Valide du 12 à 00h jusqu'au 13 à 00h UTC


112321Z 1200/1224 19004KT P6SM BKN250
FM120800 25006KT P6SM BKN060
FM121600 32012KT 4SM -RA OVC015
FM122300 35011KT P6SM BKN040 AMD LTD TO CLD VIS AND WIND



MET'MAP, la Météo Aéronautique d'un coup d'oeil ! - Copyright ORBIFLY Décembre 2007 - Disclaimer

ORBIFLY MET'MAP TEAM :

Programmation & Développement : Alexandra Zaïnal
Conception & Développement : Baudouin d'Aumeries
Co-Programmation & Développement : Marc-Olivier Méhu
Soutien technique & logistique : Manuel Goepfert

Contact : metmap@orbifly.com




SOURCES & CREDITS :

   NOAA       Earth
Advisory